Holden Village, Washington
Current Conditions -  °F | °C
As of 7:55 AM on Friday 28 Nov 2014 (Local Time) from KEAT Reporting Station
Few Clouds Few Clouds  
Wind Chill: 44°   Ceiling: Unl
Heat Index: 46°   Visibility: NA
Dew Point: 37°   Wind: 5mph
Humidity: 71%   Direction: 100°E
Pressure: 29.44"   Gusts: NA
Location:  47.9044°N, 120.153°W
Report Text: KEAT 281555Z AUTO 10004KT FEW070 08/03 A2944 RMK AO2 SLP971 T00780028
Loading
Personal Weather Stations






























Interactive Weather Map New forecast layout! Learn more

10-Day Weather Forecast

Advertisements
Track Severe Weather on mobile